Time;durP1;ratioP1;P1;durP2;ratioP2;P2;SDS_P1;SDS_P2;PMS_P1;PMS_P2;Temp;Humidity;BMP_temperature;BMP_pressure;BME280_temperature;BME280_humidity;BME280_pressure;Samples;Min_cycle;Max_cycle;Signal;HPM_P1;HPM_P2
2023/04/20 00:00:14;;;;;;;;;;;;;;;;;;5051766;28;19968;-62
2023/04/20 00:02:41;;;;;;;;;;;;;;;;;;5052016;28;19975;-62
2023/04/20 00:05:07;;;;;;;;;;;;;;;;;;5050836;28;19929;-62
2023/04/20 00:07:34;;;;;;;;;;;;;;;;;;5050332;28;19924;-62
2023/04/20 00:10:00;;;;;;;;;;;;;;;;;;5051872;28;19928;-62
2023/04/20 00:12:26;;;;;;;;;;;;;;;;;;5052087;28;20416;-62
2023/04/20 00:14:52;;;;;;;;;;;;;;;;;;5051744;28;19920;-62
2023/04/20 00:17:18;;;;;;;;;;;;;;;;;;5051730;28;19924;-62
2023/04/20 00:19:45;;;;;;;;;;;;;;;;;;5051969;28;19928;-62
2023/04/20 00:22:11;;;;;;;;;;;;;;;;;;5051606;28;19932;-62
2023/04/20 00:24:37;;;;;;;;;;;;;;;;;;5051172;28;20390;-62
2023/04/20 00:27:03;;;;;;;;;;;;;;;;;;5050219;28;19921;-62
2023/04/20 00:29:28;;;;;;;;;;;;;;;;;;5051736;28;19928;-62
2023/04/20 00:31:54;;;;;;;;;;;;;;;;;;5050357;28;19924;-62
2023/04/20 00:34:20;;;;;;;;;;;;;;;;;;5051633;28;19924;-62
2023/04/20 00:36:46;;;;;;;;;;;;;;;;;;5051832;28;19931;-62
2023/04/20 00:39:12;;;;;;;;;;;;;;;;;;5050894;28;19924;-62
2023/04/20 00:41:38;;;;;;;;;;;;;;;;;;5051372;28;19932;-63
2023/04/20 00:44:05;;;;;;;;;;;;;;;;;;5051530;28;19931;-62
2023/04/20 00:46:31;;;;;;;;;;;;;;;;;;5051045;28;19952;-62
2023/04/20 00:48:57;;;;;;;;;;;;;;;;;;5051052;28;19924;-62
2023/04/20 00:51:23;;;;;;;;;;;;;;;;;;5051383;28;19928;-62
2023/04/20 00:53:49;;;;;;;;;;;;;;;;;;5049344;28;19925;-62
2023/04/20 00:56:15;;;;;;;;;;;;;;;;;;5049847;28;19924;-62
2023/04/20 00:58:41;;;;;;;;;;;;;;;;;;5050945;28;19925;-62
2023/04/20 01:01:07;;;;;;;;;;;;;;;;;;5050532;28;19999;-62
2023/04/20 01:03:33;;;;;;;;;;;;;;;;;;5051194;28;20386;-62
2023/04/20 01:05:59;;;;;;;;;;;;;;;;;;5051189;28;19987;-62
2023/04/20 01:08:26;;;;;;;;;;;;;;;;;;5050668;28;19924;-62
2023/04/20 01:10:52;;;;;;;;;;;;;;;;;;5050961;28;19924;-62
2023/04/20 01:13:18;;;;;;;;;;;;;;;;;;5051157;28;19924;-62
2023/04/20 01:15:44;;;;;;;;;;;;;;;;;;5050457;28;19927;-62
2023/04/20 01:18:10;;;;;;;;;;;;;;;;;;5050891;28;19967;-62
2023/04/20 01:20:36;;;;;;;;;;;;;;;;;;5050781;28;19925;-62
2023/04/20 01:23:02;;;;;;;;;;;;;;;;;;5050138;28;19925;-62
2023/04/20 01:25:28;;;;;;;;;;;;;;;;;;5050923;28;19928;-62
2023/04/20 01:27:54;;;;;;;;;;;;;;;;;;5051018;28;19920;-62
2023/04/20 01:30:20;;;;;;;;;;;;;;;;;;5050187;28;20007;-62
2023/04/20 01:32:46;;;;;;;;;;;;;;;;;;5050978;28;20035;-62
2023/04/20 01:35:12;;;;;;;;;;;;;;;;;;5050860;28;20315;-62
2023/04/20 01:37:38;;;;;;;;;;;;;;;;;;5050363;28;19921;-62
2023/04/20 01:40:05;;;;;;;;;;;;;;;;;;5050719;28;20379;-62
2023/04/20 01:42:31;;;;;;;;;;;;;;;;;;5052550;28;19924;-62
2023/04/20 01:44:57;;;;;;;;;;;;;;;;;;5054037;28;20427;-62
2023/04/20 01:47:23;;;;;;;;;;;;;;;;;;5054891;28;19939;-62
2023/04/20 01:49:48;;;;;;;;;;;;;;;;;;5054840;28;19921;-62
2023/04/20 01:52:14;;;;;;;;;;;;;;;;;;5054251;28;19948;-62
2023/04/20 01:54:40;;;;;;;;;;;;;;;;;;5054692;28;19978;-62
2023/04/20 01:57:06;;;;;;;;;;;;;;;;;;5054660;28;19921;-62
2023/04/20 01:59:32;;;;;;;;;;;;;;;;;;5054078;28;19943;-62
2023/04/20 02:01:58;;;;;;;;;;;;;;;;;;5054503;28;19972;-62
2023/04/20 02:04:24;;;;;;;;;;;;;;;;;;5054480;28;19925;-62
2023/04/20 02:06:50;;;;;;;;;;;;;;;;;;5054044;28;19928;-62
2023/04/20 02:09:16;;;;;;;;;;;;;;;;;;5054460;28;20390;-62
2023/04/20 02:11:42;;;;;;;;;;;;;;;;;;5054468;28;20019;-62
2023/04/20 02:14:08;;;;;;;;;;;;;;;;;;5053836;28;19944;-62
2023/04/20 02:16:35;;;;;;;;;;;;;;;;;;5054093;28;19924;-62
2023/04/20 02:19:01;;;;;;;;;;;;;;;;;;5054395;28;19925;-62
2023/04/20 02:21:27;;;;;;;;;;;;;;;;;;5053765;28;19935;-62
2023/04/20 02:23:53;;;;;;;;;;;;;;;;;;5053719;28;19924;-62
2023/04/20 02:26:19;;;;;;;;;;;;;;;;;;5053866;28;19925;-62
2023/04/20 02:28:45;;;;;;;;;;;;;;;;;;5053537;28;19929;-62
2023/04/20 02:31:11;;;;;;;;;;;;;;;;;;5053926;28;20401;-62
2023/04/20 02:33:37;;;;;;;;;;;;;;;;;;5053801;28;19956;-62
2023/04/20 02:36:03;;;;;;;;;;;;;;;;;;5051937;28;20429;-62
2023/04/20 02:38:30;;;;;;;;;;;;;;;;;;5053969;28;19943;-62
2023/04/20 02:40:56;;;;;;;;;;;;;;;;;;5053906;28;19929;-62
2023/04/20 02:43:22;;;;;;;;;;;;;;;;;;5053109;28;19936;-62
2023/04/20 02:45:48;;;;;;;;;;;;;;;;;;5053718;28;19931;-62
2023/04/20 02:48:14;;;;;;;;;;;;;;;;;;5053335;28;19924;-62
2023/04/20 02:50:40;;;;;;;;;;;;;;;;;;5052711;28;19924;-62
2023/04/20 02:53:06;;;;;;;;;;;;;;;;;;5053327;28;19921;-62
2023/04/20 02:55:32;;;;;;;;;;;;;;;;;;5051998;28;19920;-62
2023/04/20 02:57:58;;;;;;;;;;;;;;;;;;5053065;28;19931;-62
2023/04/20 03:00:24;;;;;;;;;;;;;;;;;;5053383;28;19928;-62
2023/04/20 03:02:50;;;;;;;;;;;;;;;;;;5053461;28;19930;-62
2023/04/20 03:05:16;;;;;;;;;;;;;;;;;;5052999;28;19931;-62
2023/04/20 03:07:42;;;;;;;;;;;;;;;;;;5053359;28;19921;-62
2023/04/20 03:10:08;;;;;;;;;;;;;;;;;;5053134;28;19921;-62
2023/04/20 03:12:34;;;;;;;;;;;;;;;;;;5052992;28;19921;-62
2023/04/20 03:15:00;;;;;;;;;;;;;;;;;;5053208;28;19990;-62
2023/04/20 03:17:27;;;;;;;;;;;;;;;;;;5052950;28;20379;-62
2023/04/20 03:19:53;;;;;;;;;;;;;;;;;;5053094;28;19929;-62
2023/04/20 03:22:18;;;;;;;;;;;;;;;;;;5052395;28;20306;-62
2023/04/20 03:24:46;;;;;;;;;;;;;;;;;;5051864;28;20019;-62
2023/04/20 03:27:13;;;;;;;;;;;;;;;;;;5052704;28;20363;-62
2023/04/20 03:29:39;;;;;;;;;;;;;;;;;;5052403;28;19933;-62
2023/04/20 03:32:05;;;;;;;;;;;;;;;;;;5052909;28;20295;-62
2023/04/20 03:34:31;;;;;;;;;;;;;;;;;;5052909;28;20356;-62
2023/04/20 03:36:57;;;;;;;;;;;;;;;;;;5051084;28;20379;-62
2023/04/20 03:39:23;;;;;;;;;;;;;;;;;;5052696;28;19924;-62
2023/04/20 03:41:49;;;;;;;;;;;;;;;;;;5052665;28;19924;-62
2023/04/20 03:44:15;;;;;;;;;;;;;;;;;;5051994;28;19979;-62
2023/04/20 03:46:41;;;;;;;;;;;;;;;;;;5051231;28;19921;-62
2023/04/20 03:49:07;;;;;;;;;;;;;;;;;;5052733;28;19921;-62
2023/04/20 03:51:33;;;;;;;;;;;;;;;;;;5051982;28;19928;-62
2023/04/20 03:53:59;;;;;;;;;;;;;;;;;;5052544;28;19978;-62
2023/04/20 03:56:26;;;;;;;;;;;;;;;;;;5050999;28;19925;-62
2023/04/20 03:58:52;;;;;;;;;;;;;;;;;;5051698;28;19920;-62
2023/04/20 04:01:18;;;;;;;;;;;;;;;;;;5052409;28;19921;-62
2023/04/20 04:03:44;;;;;;;;;;;;;;;;;;5052314;28;19924;-62
2023/04/20 04:06:10;;;;;;;;;;;;;;;;;;5050642;28;19920;-62
2023/04/20 04:08:36;;;;;;;;;;;;;;;;;;5052127;28;19930;-62
2023/04/20 04:11:02;;;;;;;;;;;;;;;;;;5052280;28;20023;-62
2023/04/20 04:13:28;;;;;;;;;;;;;;;;;;5050176;28;19924;-62
2023/04/20 04:15:54;;;;;;;;;;;;;;;;;;5052289;28;19920;-62
2023/04/20 04:18:20;;;;;;;;;;;;;;;;;;5052157;28;19924;-62
2023/04/20 04:20:46;;;;;;;;;;;;;;;;;;5051524;28;19931;-62
2023/04/20 04:23:12;;;;;;;;;;;;;;;;;;5051623;28;19929;-62
2023/04/20 04:25:41;;;;;;;;;;;;;;;;;;5051738;28;19929;-62
2023/04/20 04:28:07;;;;;;;;;;;;;;;;;;5051434;28;19928;-62
2023/04/20 04:30:34;;;;;;;;;;;;;;;;;;5050309;28;19924;-62
2023/04/20 04:33:03;;;;;;;;;;;;;;;;;;5051967;28;19944;-62
2023/04/20 04:35:30;;;;;;;;;;;;;;;;;;5051600;28;20011;-62
2023/04/20 04:37:56;;;;;;;;;;;;;;;;;;5051708;28;19997;-62
2023/04/20 04:40:22;;;;;;;;;;;;;;;;;;5052020;28;19925;-62
2023/04/20 04:42:48;;;;;;;;;;;;;;;;;;5051520;28;20007;-62
2023/04/20 04:45:15;;;;;;;;;;;;;;;;;;5051760;28;20007;-62
2023/04/20 04:47:41;;;;;;;;;;;;;;;;;;5051769;28;20514;-62
2023/04/20 04:50:08;;;;;;;;;;;;;;;;;;5031315;28;19967;-62
2023/04/20 04:52:34;;;;;;;;;;;;;;;;;;5031923;28;20746;-62
2023/04/20 04:55:00;;;;;;;;;;;;;;;;;;5064076;28;20351;-62
2023/04/20 04:57:26;;;;;;;;;;;;;;;;;;5031286;28;19929;-62
2023/04/20 04:59:52;;;;;;;;;;;;;;;;;;5030421;28;19956;-62
2023/04/20 05:02:18;;;;;;;;;;;;;;;;;;5031781;28;20328;-62
2023/04/20 05:04:44;;;;;;;;;;;;;;;;;;5030861;28;19967;-62
2023/04/20 05:07:10;;;;;;;;;;;;;;;;;;5031751;28;19937;-62
2023/04/20 05:09:36;;;;;;;;;;;;;;;;;;5031686;28;19929;-62
2023/04/20 05:12:02;;;;;;;;;;;;;;;;;;5031085;28;19956;-62
2023/04/20 05:14:28;;;;;;;;;;;;;;;;;;5031423;28;19921;-62
2023/04/20 05:16:54;;;;;;;;;;;;;;;;;;5030872;28;19921;-62
2023/04/20 05:19:20;;;;;;;;;;;;;;;;;;5030966;28;20272;-62
2023/04/20 05:21:46;;;;;;;;;;;;;;;;;;5031261;28;19921;-62
2023/04/20 05:24:12;;;;;;;;;;;;;;;;;;5031195;28;19928;-62
2023/04/20 05:26:38;;;;;;;;;;;;;;;;;;5043845;28;20030;-62
2023/04/20 05:29:04;;;;;;;;;;;;;;;;;;5049865;28;20329;-62
2023/04/20 05:31:32;;;;;;;;;;;;;;;;;;5050799;28;19924;-62
2023/04/20 05:33:58;;;;;;;;;;;;;;;;;;5050827;28;20339;-62
2023/04/20 05:36:24;;;;;;;;;;;;;;;;;;5051317;28;19972;-62
2023/04/20 05:38:50;;;;;;;;;;;;;;;;;;5051375;28;19924;-62
2023/04/20 05:41:16;;;;;;;;;;;;;;;;;;5050520;28;19983;-62
2023/04/20 05:43:41;;;;;;;;;;;;;;;;;;5051229;28;19975;-62
2023/04/20 05:46:07;;;;;;;;;;;;;;;;;;5051173;28;19990;-62
2023/04/20 05:48:33;;;;;;;;;;;;;;;;;;5050560;28;19920;-62
2023/04/20 05:50:59;;;;;;;;;;;;;;;;;;5051100;28;19927;-62
2023/04/20 05:53:25;;;;;;;;;;;;;;;;;;5049693;28;19929;-62
2023/04/20 05:55:51;;;;;;;;;;;;;;;;;;5050630;28;20014;-62
2023/04/20 05:58:17;;;;;;;;;;;;;;;;;;5051242;28;19921;-63
2023/04/20 06:00:43;;;;;;;;;;;;;;;;;;5051134;28;19971;-62
2023/04/20 06:03:09;;;;;;;;;;;;;;;;;;5050435;28;20360;-62
2023/04/20 06:05:35;;;;;;;;;;;;;;;;;;5049869;28;19932;-62
2023/04/20 06:08:01;;;;;;;;;;;;;;;;;;5050744;28;19924;-62
2023/04/20 06:10:31;;;;;;;;;;;;;;;;;;5050382;28;19978;-62
2023/04/20 06:12:57;;;;;;;;;;;;;;;;;;5050948;28;19967;-62
2023/04/20 06:15:23;;;;;;;;;;;;;;;;;;5050523;28;19997;-62
2023/04/20 06:17:49;;;;;;;;;;;;;;;;;;5049887;28;19920;-62
2023/04/20 06:20:15;;;;;;;;;;;;;;;;;;5050663;28;19970;-62
2023/04/20 06:22:42;;;;;;;;;;;;;;;;;;5049227;28;19932;-62
2023/04/20 06:25:08;;;;;;;;;;;;;;;;;;5050024;28;19925;-62
2023/04/20 06:27:34;;;;;;;;;;;;;;;;;;5050569;28;20681;-62
2023/04/20 06:30:00;;;;;;;;;;;;;;;;;;5047390;28;19925;-63
2023/04/20 06:32:26;;;;;;;;;;;;;;;;;;5050989;28;19921;-62
2023/04/20 06:34:52;;;;;;;;;;;;;;;;;;5048710;28;19921;-62
2023/04/20 06:37:18;;;;;;;;;;;;;;;;;;5053733;28;19928;-62
2023/04/20 06:39:44;;;;;;;;;;;;;;;;;;5053110;28;20630;-62
2023/04/20 06:42:10;;;;;;;;;;;;;;;;;;5053041;28;19986;-62
2023/04/20 06:44:36;;;;;;;;;;;;;;;;;;5053662;28;19964;-62
2023/04/20 06:47:02;;;;;;;;;;;;;;;;;;5053371;28;19920;-62
2023/04/20 06:49:28;;;;;;;;;;;;;;;;;;5052866;28;19920;-62
2023/04/20 06:51:54;;;;;;;;;;;;;;;;;;5052875;28;19928;-62
2023/04/20 06:54:20;;;;;;;;;;;;;;;;;;5048762;28;19928;-62
2023/04/20 06:56:46;;;;;;;;;;;;;;;;;;5048002;28;20024;-62
2023/04/20 06:59:14;;;;;;;;;;;;;;;;;;5052172;28;20280;-62
2023/04/20 07:01:40;;;;;;;;;;;;;;;;;;5053303;28;20382;-62
2023/04/20 07:04:09;;;;;;;;;;;;;;;;;;5052542;28;19932;-62
2023/04/20 07:06:35;;;;;;;;;;;;;;;;;;5048016;28;19928;-62
2023/04/20 07:09:00;;;;;;;;;;;;;;;;;;5047084;28;19928;-63
2023/04/20 07:11:27;;;;;;;;;;;;;;;;;;5050748;28;19927;-63
2023/04/20 07:13:52;;;;;;;;;;;;;;;;;;5050776;28;19928;-63
2023/04/20 07:16:18;;;;;;;;;;;;;;;;;;5053954;28;19924;-63
2023/04/20 07:18:45;;;;;;;;;;;;;;;;;;5049244;28;19987;-64
2023/04/20 07:21:11;;;;;;;;;;;;;;;;;;5048413;28;19974;-63
2023/04/20 07:23:37;;;;;;;;;;;;;;;;;;5047717;28;19928;-62
2023/04/20 07:26:03;;;;;;;;;;;;;;;;;;5050432;28;20015;-64
2023/04/20 07:28:29;;;;;;;;;;;;;;;;;;5050697;28;19976;-64
2023/04/20 07:30:55;;;;;;;;;;;;;;;;;;5044997;28;19990;-62
2023/04/20 07:33:22;;;;;;;;;;;;;;;;;;5050547;28;20012;-62
2023/04/20 07:35:48;;;;;;;;;;;;;;;;;;5052085;28;19925;-62
2023/04/20 07:38:15;;;;;;;;;;;;;;;;;;5051086;28;19974;-62
2023/04/20 07:40:41;;;;;;;;;;;;;;;;;;5049854;28;19963;-62
2023/04/20 07:43:07;;;;;;;;;;;;;;;;;;5050040;28;19928;-62
2023/04/20 07:45:32;;;;;;;;;;;;;;;;;;5043850;28;19928;-63
2023/04/20 07:48:00;;;;;;;;;;;;;;;;;;5049094;28;19947;-64
2023/04/20 07:50:26;;;;;;;;;;;;;;;;;;5047473;28;20293;-64
2023/04/20 07:52:52;;;;;;;;;;;;;;;;;;5044244;28;20015;-63
2023/04/20 07:55:18;;;;;;;;;;;;;;;;;;5045893;28;19982;-63
2023/04/20 07:57:44;;;;;;;;;;;;;;;;;;5052953;28;19925;-63
2023/04/20 08:00:11;;;;;;;;;;;;;;;;;;5044870;28;19954;-62
2023/04/20 08:02:37;;;;;;;;;;;;;;;;;;5048719;28;19925;-62
2023/04/20 08:05:03;;;;;;;;;;;;;;;;;;5050293;28;19936;-63
2023/04/20 08:07:29;;;;;;;;;;;;;;;;;;5051426;28;19921;-62
2023/04/20 08:09:55;;;;;;;;;;;;;;;;;;5050682;28;20395;-62
2023/04/20 08:12:21;;;;;;;;;;;;;;;;;;5051024;28;19939;-62
2023/04/20 08:14:47;;;;;;;;;;;;;;;;;;5050290;28;20312;-62
2023/04/20 08:17:13;;;;;;;;;;;;;;;;;;5050712;28;19932;-62
2023/04/20 08:19:40;;;;;;;;;;;;;;;;;;5058963;28;19924;-62
2023/04/20 08:22:05;;;;;;;;;;;;;;;;;;5055337;28;19970;-62
2023/04/20 08:24:31;;;;;;;;;;;;;;;;;;5048202;28;20306;-62
2023/04/20 08:26:58;;;;;;;;;;;;;;;;;;5047449;28;19929;-62
2023/04/20 08:29:24;;;;;;;;;;;;;;;;;;5038508;28;19921;-62
2023/04/20 08:31:50;;;;;;;;;;;;;;;;;;5048905;28;20426;-63
2023/04/20 08:34:16;;;;;;;;;;;;;;;;;;5050050;28;19935;-62
2023/04/20 08:36:42;;;;;;;;;;;;;;;;;;5051015;28;20259;-62
2023/04/20 08:39:08;;;;;;;;;;;;;;;;;;5049192;28;19956;-63
2023/04/20 08:41:35;;;;;;;;;;;;;;;;;;5052304;28;19921;-62
2023/04/20 08:44:01;;;;;;;;;;;;;;;;;;5052778;28;20379;-62
2023/04/20 08:46:27;;;;;;;;;;;;;;;;;;5049128;28;20494;-63
2023/04/20 08:48:56;;;;;;;;;;;;;;;;;;5049340;28;19929;-63
2023/04/20 08:51:23;;;;;;;;;;;;;;;;;;5050497;28;19924;-63
2023/04/20 08:53:49;;;;;;;;;;;;;;;;;;5045118;28;19924;-63
2023/04/20 08:56:15;;;;;;;;;;;;;;;;;;5050907;28;20077;-63
2023/04/20 08:58:41;;;;;;;;;;;;;;;;;;5050688;28;19982;-63
2023/04/20 09:01:07;;;;;;;;;;;;;;;;;;5050176;28;20011;-64
2023/04/20 09:03:33;;;;;;;;;;;;;;;;;;5050509;28;20094;-64
2023/04/20 09:05:59;;;;;;;;;;;;;;;;;;5050391;28;19925;-64
2023/04/20 09:08:25;;;;;;;;;;;;;;;;;;5049905;28;19920;-64
2023/04/20 09:10:51;;;;;;;;;;;;;;;;;;5050562;28;19974;-64
2023/04/20 09:13:17;;;;;;;;;;;;;;;;;;5050469;28;19946;-64
2023/04/20 09:15:43;;;;;;;;;;;;;;;;;;5049762;28;19925;-64
2023/04/20 09:18:09;;;;;;;;;;;;;;;;;;5050863;28;19921;-64
2023/04/20 09:20:35;;;;;;;;;;;;;;;;;;5049749;28;19932;-62
2023/04/20 09:23:01;;;;;;;;;;;;;;;;;;5049862;28;19925;-62
2023/04/20 09:25:27;;;;;;;;;;;;;;;;;;5050087;28;19933;-62
2023/04/20 09:27:53;;;;;;;;;;;;;;;;;;5050610;28;19920;-63
2023/04/20 09:30:19;;;;;;;;;;;;;;;;;;5049987;28;19925;-63
2023/04/20 09:32:44;;;;;;;;;;;;;;;;;;5050392;28;19991;-63
2023/04/20 09:35:10;;;;;;;;;;;;;;;;;;5048799;28;19927;-63
2023/04/20 09:37:36;;;;;;;;;;;;;;;;;;5049693;28;20011;-62
2023/04/20 09:40:02;;;;;;;;;;;;;;;;;;5026937;28;19936;-62
2023/04/20 09:42:28;;;;;;;;;;;;;;;;;;5050103;28;19924;-62
2023/04/20 09:44:54;;;;;;;;;;;;;;;;;;5043745;28;20591;-62
2023/04/20 09:47:20;;;;;;;;;;;;;;;;;;5049814;28;19928;-62
2023/04/20 09:49:46;;;;;;;;;;;;;;;;;;5049147;28;19925;-62
2023/04/20 09:52:12;;;;;;;;;;;;;;;;;;5049669;28;19925;-62
2023/04/20 09:54:40;;;;;;;;;;;;;;;;;;5049859;28;19925;-62
2023/04/20 09:57:06;;;;;;;;;;;;;;;;;;5050672;28;20314;-62
2023/04/20 09:59:32;;;;;;;;;;;;;;;;;;5049880;28;19924;-62
2023/04/20 10:01:58;;;;;;;;;;;;;;;;;;5049724;28;19977;-62
2023/04/20 10:04:24;;;;;;;;;;;;;;;;;;5053826;28;19925;-62
2023/04/20 10:06:50;;;;;;;;;;;;;;;;;;5053130;28;19925;-62
2023/04/20 10:09:16;;;;;;;;;;;;;;;;;;5053412;28;19921;-62
2023/04/20 10:11:43;;;;;;;;;;;;;;;;;;5053824;28;19928;-62
2023/04/20 10:14:09;;;;;;;;;;;;;;;;;;5054001;28;19924;-63
2023/04/20 10:16:34;;;;;;;;;;;;;;;;;;5052951;28;19978;-62
2023/04/20 10:19:01;;;;;;;;;;;;;;;;;;5054043;28;19925;-62
2023/04/20 10:21:28;;;;;;;;;;;;;;;;;;5053832;28;20007;-62
2023/04/20 10:23:55;;;;;;;;;;;;;;;;;;5053672;28;19981;-62
2023/04/20 10:26:21;;;;;;;;;;;;;;;;;;5053740;28;19924;-61
2023/04/20 10:28:47;;;;;;;;;;;;;;;;;;5054305;28;19925;-62
2023/04/20 10:31:14;;;;;;;;;;;;;;;;;;5053108;28;20398;-62
2023/04/20 10:33:39;;;;;;;;;;;;;;;;;;5053788;28;19925;-61
2023/04/20 10:36:05;;;;;;;;;;;;;;;;;;5052278;28;19925;-61
2023/04/20 10:38:31;;;;;;;;;;;;;;;;;;5051156;28;19929;-62
2023/04/20 10:40:58;;;;;;;;;;;;;;;;;;5053105;28;19948;-63
2023/04/20 10:43:24;;;;;;;;;;;;;;;;;;5053403;28;19925;-63
2023/04/20 10:45:50;;;;;;;;;;;;;;;;;;5052855;28;19927;-63
2023/04/20 10:48:16;;;;;;;;;;;;;;;;;;5051559;28;19935;-63
2023/04/20 10:50:42;;;;;;;;;;;;;;;;;;5053005;28;19925;-63
2023/04/20 10:53:08;;;;;;;;;;;;;;;;;;5049845;28;19921;-63
2023/04/20 10:55:34;;;;;;;;;;;;;;;;;;5052486;28;19929;-62
2023/04/20 10:58:00;;;;;;;;;;;;;;;;;;5050500;28;19921;-62
2023/04/20 11:00:26;;;;;;;;;;;;;;;;;;5057676;28;19924;-63
2023/04/20 11:02:52;;;;;;;;;;;;;;;;;;5053120;28;19921;-63
2023/04/20 11:05:18;;;;;;;;;;;;;;;;;;5049511;28;20023;-62
2023/04/20 11:07:44;;;;;;;;;;;;;;;;;;5051122;28;19963;-62
2023/04/20 11:10:10;;;;;;;;;;;;;;;;;;5050459;28;19929;-62
2023/04/20 11:12:36;;;;;;;;;;;;;;;;;;5048508;28;19991;-61
2023/04/20 11:15:03;;;;;;;;;;;;;;;;;;5051720;28;19925;-62
2023/04/20 11:17:29;;;;;;;;;;;;;;;;;;5050889;28;20003;-62
2023/04/20 11:19:55;;;;;;;;;;;;;;;;;;5052657;28;19931;-62
2023/04/20 11:22:22;;;;;;;;;;;;;;;;;;5051574;28;20004;-62
2023/04/20 11:24:49;;;;;;;;;;;;;;;;;;5050629;28;19968;-60
2023/04/20 11:27:15;;;;;;;;;;;;;;;;;;5053601;28;19929;-62
2023/04/20 11:29:41;;;;;;;;;;;;;;;;;;5051779;28;19920;-62
2023/04/20 11:32:07;;;;;;;;;;;;;;;;;;5051950;28;19971;-61
2023/04/20 11:34:33;;;;;;;;;;;;;;;;;;5050957;28;19960;-62
2023/04/20 11:36:59;;;;;;;;;;;;;;;;;;5050220;28;19929;-61
2023/04/20 11:39:25;;;;;;;;;;;;;;;;;;5044191;28;19968;-62
2023/04/20 11:41:51;;;;;;;;;;;;;;;;;;5052117;28;20000;-62
2023/04/20 11:44:19;;;;;;;;;;;;;;;;;;5049416;28;19944;-61
2023/04/20 11:46:45;;;;;;;;;;;;;;;;;;5049367;28;19920;-62
2023/04/20 11:49:11;;;;;;;;;;;;;;;;;;5046199;28;19925;-62
2023/04/20 11:51:37;;;;;;;;;;;;;;;;;;5048954;28;20375;-62
2023/04/20 11:54:03;;;;;;;;;;;;;;;;;;5049145;28;19983;-62
2023/04/20 11:56:29;;;;;;;;;;;;;;;;;;5052663;28;20346;-62
2023/04/20 11:58:55;;;;;;;;;;;;;;;;;;5049268;28;20012;-62
2023/04/20 12:01:21;;;;;;;;;;;;;;;;;;5046359;28;19920;-62
2023/04/20 12:03:47;;;;;;;;;;;;;;;;;;5049589;28;20359;-62
2023/04/20 12:06:13;;;;;;;;;;;;;;;;;;5047492;28;20390;-60
2023/04/20 12:08:39;;;;;;;;;;;;;;;;;;5048375;28;19974;-62
2023/04/20 12:11:05;;;;;;;;;;;;;;;;;;5048190;28;20666;-62
2023/04/20 12:13:31;;;;;;;;;;;;;;;;;;5049526;28;19925;-62
2023/04/20 12:15:57;;;;;;;;;;;;;;;;;;5048503;28;19948;-62
2023/04/20 12:18:23;;;;;;;;;;;;;;;;;;5044562;28;19921;-63
2023/04/20 12:20:49;;;;;;;;;;;;;;;;;;5049201;28;19991;-62
2023/04/20 12:23:15;;;;;;;;;;;;;;;;;;5049646;28;20291;-62
2023/04/20 12:25:41;;;;;;;;;;;;;;;;;;5049219;28;19948;-63
2023/04/20 12:28:07;;;;;;;;;;;;;;;;;;5048427;28;19931;-63
2023/04/20 12:30:34;;;;;;;;;;;;;;;;;;5049664;28;19920;-62
2023/04/20 12:33:00;;;;;;;;;;;;;;;;;;5048719;28;20399;-62
2023/04/20 12:35:26;;;;;;;;;;;;;;;;;;5049268;28;20349;-60
2023/04/20 12:37:52;;;;;;;;;;;;;;;;;;5049094;28;20050;-62
2023/04/20 12:40:17;;;;;;;;;;;;;;;;;;5049604;28;19921;-62
2023/04/20 12:42:43;;;;;;;;;;;;;;;;;;5048569;28;20639;-62
2023/04/20 12:45:09;;;;;;;;;;;;;;;;;;5048177;28;19935;-62
2023/04/20 12:47:35;;;;;;;;;;;;;;;;;;5046732;28;19924;-62
2023/04/20 12:50:02;;;;;;;;;;;;;;;;;;5048180;28;20411;-62
2023/04/20 12:52:28;;;;;;;;;;;;;;;;;;5048932;28;19925;-61
2023/04/20 12:54:54;;;;;;;;;;;;;;;;;;5048765;28;20291;-61
2023/04/20 12:57:20;;;;;;;;;;;;;;;;;;5049135;28;19925;-61
2023/04/20 12:59:49;;;;;;;;;;;;;;;;;;5050047;28;20315;-62
2023/04/20 13:02:14;;;;;;;;;;;;;;;;;;5048624;28;19925;-62
2023/04/20 13:04:40;;;;;;;;;;;;;;;;;;5048918;28;19936;-63
2023/04/20 13:07:06;;;;;;;;;;;;;;;;;;5045045;28;19932;-62
2023/04/20 13:09:32;;;;;;;;;;;;;;;;;;5046628;28;19928;-62
2023/04/20 13:11:58;;;;;;;;;;;;;;;;;;5053992;28;20011;-62
2023/04/20 13:14:24;;;;;;;;;;;;;;;;;;5049177;28;19924;-62
2023/04/20 13:16:50;;;;;;;;;;;;;;;;;;5048151;28;19947;-62
2023/04/20 13:19:16;;;;;;;;;;;;;;;;;;5048709;28;19925;-61
2023/04/20 13:21:42;;;;;;;;;;;;;;;;;;5047107;28;19986;-62
2023/04/20 13:24:08;;;;;;;;;;;;;;;;;;5050701;28;20216;-62
2023/04/20 13:26:34;;;;;;;;;;;;;;;;;;5048688;28;19921;-62
2023/04/20 13:29:00;;;;;;;;;;;;;;;;;;5048406;28;20012;-63
2023/04/20 13:31:26;;;;;;;;;;;;;;;;;;5048671;28;20031;-62
2023/04/20 13:33:55;;;;;;;;;;;;;;;;;;5048669;28;19920;-63
2023/04/20 13:36:21;;;;;;;;;;;;;;;;;;5049962;28;19925;-61
2023/04/20 13:38:47;;;;;;;;;;;;;;;;;;5044881;28;19929;-62
2023/04/20 13:41:13;;;;;;;;;;;;;;;;;;5050593;28;20294;-63
2023/04/20 13:43:39;;;;;;;;;;;;;;;;;;5045378;28;19978;-60
2023/04/20 13:46:05;;;;;;;;;;;;;;;;;;5069590;28;19920;-60
2023/04/20 13:48:31;;;;;;;;;;;;;;;;;;5069416;28;19927;-60
2023/04/20 13:50:57;;;;;;;;;;;;;;;;;;5055434;28;19990;-60
2023/04/20 13:53:23;;;;;;;;;;;;;;;;;;5056094;28;19921;-60
2023/04/20 13:55:49;;;;;;;;;;;;;;;;;;5055936;28;19925;-60
2023/04/20 13:58:15;;;;;;;;;;;;;;;;;;5055524;28;19979;-61
2023/04/20 14:00:41;;;;;;;;;;;;;;;;;;5055807;28;19972;-61
2023/04/20 14:03:07;;;;;;;;;;;;;;;;;;5055923;28;20370;-61
2023/04/20 14:05:33;;;;;;;;;;;;;;;;;;5055373;28;19925;-61
2023/04/20 14:08:00;;;;;;;;;;;;;;;;;;5055682;28;19920;-60
2023/04/20 14:10:26;;;;;;;;;;;;;;;;;;5055776;28;19931;-60
2023/04/20 14:12:52;;;;;;;;;;;;;;;;;;5055186;28;20019;-61
2023/04/20 14:15:18;;;;;;;;;;;;;;;;;;5055865;28;20339;-61
2023/04/20 14:17:44;;;;;;;;;;;;;;;;;;5055773;28;19925;-62
2023/04/20 14:20:10;;;;;;;;;;;;;;;;;;5055099;28;20484;-62
2023/04/20 14:22:36;;;;;;;;;;;;;;;;;;5055658;28;19929;-62
2023/04/20 14:25:02;;;;;;;;;;;;;;;;;;5055550;28;19924;-62
2023/04/20 14:27:28;;;;;;;;;;;;;;;;;;5051744;28;20306;-62
2023/04/20 14:29:54;;;;;;;;;;;;;;;;;;5055782;28;19925;-62
2023/04/20 14:32:20;;;;;;;;;;;;;;;;;;5055324;28;19924;-61
2023/04/20 14:34:45;;;;;;;;;;;;;;;;;;5055195;28;20141;-61
2023/04/20 14:37:11;;;;;;;;;;;;;;;;;;5055774;28;20240;-61
2023/04/20 14:39:37;;;;;;;;;;;;;;;;;;5055712;28;19967;-59
2023/04/20 14:42:03;;;;;;;;;;;;;;;;;;5055063;28;20015;-60
2023/04/20 14:44:29;;;;;;;;;;;;;;;;;;5055605;28;19929;-60
2023/04/20 14:46:55;;;;;;;;;;;;;;;;;;5055646;28;19925;-61
2023/04/20 14:49:21;;;;;;;;;;;;;;;;;;5053348;28;20449;-61
2023/04/20 14:51:47;;;;;;;;;;;;;;;;;;5052433;28;19925;-61
2023/04/20 14:54:13;;;;;;;;;;;;;;;;;;5052369;28;19956;-61
2023/04/20 14:56:39;;;;;;;;;;;;;;;;;;5051765;28;19975;-61
2023/04/20 14:59:05;;;;;;;;;;;;;;;;;;5052161;28;19968;-61
2023/04/20 15:01:31;;;;;;;;;;;;;;;;;;5052210;28;19920;-61
2023/04/20 15:03:57;;;;;;;;;;;;;;;;;;5051702;28;19929;-61
2023/04/20 15:06:23;;;;;;;;;;;;;;;;;;5051873;28;20299;-61
2023/04/20 15:08:49;;;;;;;;;;;;;;;;;;5052388;28;19921;-61
2023/04/20 15:11:15;;;;;;;;;;;;;;;;;;5051536;28;19975;-61
2023/04/20 15:13:42;;;;;;;;;;;;;;;;;;5052291;28;19928;-61
2023/04/20 15:16:08;;;;;;;;;;;;;;;;;;5051866;28;19925;-60
2023/04/20 15:18:34;;;;;;;;;;;;;;;;;;5051166;28;19974;-60
2023/04/20 15:21:00;;;;;;;;;;;;;;;;;;5052080;28;20351;-60
2023/04/20 15:23:26;;;;;;;;;;;;;;;;;;5051426;28;19936;-61
2023/04/20 15:25:52;;;;;;;;;;;;;;;;;;5050756;28;20421;-60
2023/04/20 15:28:18;;;;;;;;;;;;;;;;;;5051666;28;19921;-61
2023/04/20 15:30:43;;;;;;;;;;;;;;;;;;5051584;28;20325;-61
2023/04/20 15:33:10;;;;;;;;;;;;;;;;;;5051029;28;19924;-61
2023/04/20 15:35:36;;;;;;;;;;;;;;;;;;5051480;28;20015;-61
2023/04/20 15:38:02;;;;;;;;;;;;;;;;;;5051528;28;19942;-61
2023/04/20 15:40:28;;;;;;;;;;;;;;;;;;5050608;28;20196;-61
2023/04/20 15:42:54;;;;;;;;;;;;;;;;;;5051460;28;19924;-61
2023/04/20 15:45:20;;;;;;;;;;;;;;;;;;5051286;28;20545;-61
2023/04/20 15:47:46;;;;;;;;;;;;;;;;;;5050676;28;19935;-60
2023/04/20 15:50:12;;;;;;;;;;;;;;;;;;5051185;28;19925;-60
2023/04/20 15:52:38;;;;;;;;;;;;;;;;;;5051420;28;19967;-61
2023/04/20 15:55:04;;;;;;;;;;;;;;;;;;5050758;28;19924;-61
2023/04/20 15:57:30;;;;;;;;;;;;;;;;;;5051233;28;20357;-61
2023/04/20 15:59:56;;;;;;;;;;;;;;;;;;5051145;28;19927;-61
2023/04/20 16:02:22;;;;;;;;;;;;;;;;;;5050380;28;20379;-61
2023/04/20 16:04:47;;;;;;;;;;;;;;;;;;5051051;28;20367;-61
2023/04/20 16:07:13;;;;;;;;;;;;;;;;;;5050949;28;19925;-61
2023/04/20 16:09:39;;;;;;;;;;;;;;;;;;5050441;28;19928;-60
2023/04/20 16:12:05;;;;;;;;;;;;;;;;;;5050726;28;19927;-61
2023/04/20 16:14:31;;;;;;;;;;;;;;;;;;5050932;28;19959;-61
2023/04/20 16:16:57;;;;;;;;;;;;;;;;;;5050573;28;19921;-61
2023/04/20 16:19:23;;;;;;;;;;;;;;;;;;5050834;28;19974;-61
2023/04/20 16:21:49;;;;;;;;;;;;;;;;;;5050729;28;19924;-61
2023/04/20 16:24:15;;;;;;;;;;;;;;;;;;5050247;28;19929;-61
2023/04/20 16:26:41;;;;;;;;;;;;;;;;;;5049967;28;20360;-61
2023/04/20 16:29:07;;;;;;;;;;;;;;;;;;5050557;28;20272;-61
2023/04/20 16:31:35;;;;;;;;;;;;;;;;;;5050471;28;19927;-60
2023/04/20 16:34:01;;;;;;;;;;;;;;;;;;5049942;28;19925;-61
2023/04/20 16:36:27;;;;;;;;;;;;;;;;;;5050683;28;20381;-61